ADDS METAR Data INFO
IDs: Format: Raw Decoded Include TAF

Data at: 1307 UTC 19 Jul 2018

KFSW 191255Z AUTO 13008G14KT 3SM -RA SCT018 BKN043 OVC049 18/16 A2994 RMK AO2
KFSW 191235Z AUTO 15007KT 10SM BKN050 OVC055 19/14 A2995 RMK AO2
KFSW 191215Z AUTO 13008KT 10SM BKN060 BKN070 BKN090 19/14 A2995 RMK AO2
KFSW 191155Z AUTO 13005KT 10SM SCT060 SCT070 BKN090 19/14 A2996 RMK AO2
KFSW 191135Z AUTO 13005KT 10SM BKN070 OVC090 19/14 A2995 RMK AO2
KFSW 191115Z AUTO 12006KT 10SM SCT070 OVC100 19/14 A2996 RMK AO2
KFSW 191055Z AUTO 13005KT 10SM SCT085 OVC110 19/16 A2996 RMK AO2
KFSW 191035Z AUTO 11005KT 10SM SCT065 OVC085 19/16 A2996 RMK AO2
KFSW 191015Z AUTO 12005KT 10SM OVC095 18/17 A2997 RMK AO2
KFSW 190955Z AUTO 12003KT 10SM -DZ SCT070 OVC095 19/17 A2998 RMK AO2
KFSW 190935Z AUTO 13003KT 10SM -DZ SCT047 BKN075 OVC110 19/17 A2998 RMK AO2
KFSW 190915Z AUTO 00000KT 10SM -RA SCT043 BKN060 OVC080 19/16 A2998 RMK AO2
KFSW 190855Z AUTO 12007KT 10SM BKN050 OVC070 20/16 A2998 RMK AO2
KFSW 190835Z AUTO 12006KT 10SM BKN050 OVC090 21/16 A2998 RMK AO2
KFSW 190815Z AUTO 11008KT 10SM SCT050 OVC080 20/16 A2998 RMK AO2
KFSW 190755Z AUTO 11009KT 10SM BKN048 OVC080 21/16 A2998 RMK AO2
KFSW 190735Z AUTO 12009G14KT 10SM BKN080 OVC110 21/16 A2999 RMK AO2
KFSW 190715Z AUTO 13007KT 10SM SCT080 OVC110 21/16 A2999 RMK AO2
KFSW 190655Z AUTO 13007KT 10SM SCT050 BKN080 OVC110 21/17 A3000 RMK AO2
KFSW 190635Z AUTO 13007KT 10SM -RA SCT041 BKN060 OVC110 22/17 A3000 RMK AO2
KFSW 190615Z AUTO 14006KT 10SM OVC060 22/17 A3000 RMK AO2
KFSW 190555Z AUTO 14007KT 10SM -DZ BKN060 OVC080 22/17 A3001 RMK AO2
KFSW 190535Z AUTO 14007KT 10SM OVC060 23/17 A3001 RMK AO2
KFSW 190515Z AUTO 13006KT 10SM OVC070 23/17 A3001 RMK AO2
KFSW 190455Z AUTO 12005KT 10SM OVC070 23/18 A3001 RMK AO2
KFSW 190435Z AUTO 13005KT 10SM OVC070 23/18 A3001 RMK AO2
KFSW 190415Z AUTO 13006KT 10SM OVC080 23/18 A3002 RMK AO2
KFSW 190355Z AUTO 13004KT 10SM BKN080 23/18 A3002 RMK AO2
KFSW 190335Z AUTO 13005KT 10SM SCT080 23/18 A3002 RMK AO2
KFSW 190315Z AUTO 12007KT 10SM SCT080 23/18 A3002 RMK AO2
KFSW 190255Z AUTO 12007KT 10SM CLR 23/19 A3001 RMK AO2
KFSW 190235Z AUTO 12006KT 10SM CLR 23/19 A3001 RMK AO2
KFSW 190215Z AUTO 12006KT 10SM CLR 24/19 A3001 RMK AO2
KFSW 190155Z AUTO 12006KT 10SM CLR 24/19 A3000 RMK AO2
KFSW 190135Z AUTO 12007KT 10SM CLR 24/20 A3001 RMK AO2
KFSW 190115Z AUTO 12005KT 10SM CLR 25/20 A3000 RMK AO2
KFSW 190055Z AUTO 12006KT 10SM CLR 26/20 A3000 RMK AO2
KFSW 190035Z AUTO 13005KT 10SM CLR 26/20 A3001 RMK AO2
KFSW 190015Z AUTO 13005KT 10SM CLR 26/20 A3001 RMK AO2
KFSW 182355Z AUTO 11006KT 10SM CLR 27/20 A3000 RMK AO2
KFSW 182335Z AUTO 11006KT 10SM CLR 27/20 A3000 RMK AO2
KFSW 182315Z AUTO 12006KT 10SM CLR 28/21 A3001 RMK AO2
KFSW 182255Z AUTO 11006KT 10SM CLR 28/20 A3001 RMK AO2
KFSW 182235Z AUTO 11005KT 10SM CLR 28/21 A3001 RMK AO2
KFSW 182215Z AUTO 09004KT 10SM SCT040 28/21 A3001 RMK AO2
KFSW 182155Z AUTO 10007KT 10SM SCT040 SCT050 27/20 A3002 RMK AO2
KFSW 182135Z AUTO 11003KT 10SM CLR 29/21 A3003 RMK AO2
KFSW 182115Z AUTO 09004KT 10SM CLR 29/21 A3003 RMK AO2
KFSW 182055Z AUTO 12004KT 10SM CLR 28/21 A3004 RMK AO2
KFSW 182035Z AUTO 11007KT 10SM CLR 28/20 A3004 RMK AO2
KFSW 182015Z AUTO 13006KT 10SM CLR 28/21 A3005 RMK AO2
KFSW 181955Z AUTO 12005KT 10SM CLR 28/21 A3005 RMK AO2
KFSW 181935Z AUTO 12004KT 10SM CLR 28/21 A3006 RMK AO2
KFSW 181915Z AUTO 10007KT 10SM CLR 28/21 A3006 RMK AO2
KFSW 181855Z AUTO 09005KT 10SM CLR 28/20 A3007 RMK AO2
KFSW 181835Z AUTO 13004KT 10SM CLR 28/20 A3007 RMK AO2
KFSW 181815Z AUTO 00000KT 10SM CLR 27/20 A3008 RMK AO2
KFSW 181755Z AUTO 12003KT 10SM CLR 27/20 A3008 RMK AO2
KFSW 181735Z AUTO 11005KT 10SM CLR 27/20 A3009 RMK AO2
KFSW 181715Z AUTO 12003KT 10SM CLR 26/19 A3010 RMK AO2
KFSW 181655Z AUTO 14004KT 10SM CLR 26/19 A3011 RMK AO2
KFSW 181635Z AUTO 11005KT 10SM CLR 26/19 A3011 RMK AO2
KFSW 181615Z AUTO 11005KT 10SM CLR 25/18 A3011 RMK AO2
KFSW 181555Z AUTO 11005KT 10SM CLR 25/18 A3011 RMK AO2
KFSW 181535Z AUTO 12004KT 10SM CLR 24/18 A3011 RMK AO2
KFSW 181515Z AUTO 13006KT 10SM CLR 24/18 A3010 RMK AO2
KFSW 181455Z AUTO 14007KT 10SM CLR 23/17 A3011 RMK AO2
KFSW 181435Z AUTO 12004KT 10SM CLR 23/17 A3011 RMK AO2
KFSW 181415Z AUTO 11006KT 10SM CLR 22/17 A3011 RMK AO2
KFSW 181355Z AUTO 14004KT 10SM CLR 22/17 A3011 RMK AO2
KFSW 181335Z AUTO 14005KT 10SM CLR 21/17 A3011 RMK AO2
KFSW 181315Z AUTO 14005KT 10SM CLR 21/17 A3011 RMK AO2
KFSW 181255Z AUTO 14003KT 10SM CLR 21/16 A3012 RMK AO2
KFSW 181235Z AUTO 11005KT 10SM CLR 20/17 A3011 RMK AO2
KFSW 181215Z AUTO 11005KT 10SM CLR 20/17 A3010 RMK AO2
KFSW 181155Z AUTO 10004KT 10SM CLR 19/17 A3010 RMK AO2
KFSW 181135Z AUTO 10004KT 10SM CLR 19/18 A3010 RMK AO2
KFSW 181115Z AUTO 10005KT 10SM CLR 19/18 A3009 RMK AO2
KFSW 181055Z AUTO 09004KT 10SM CLR 19/18 A3010 RMK AO2
KFSW 181035Z AUTO 09003KT 10SM SCT085 19/18 A3010 RMK AO2
KFSW 181015Z AUTO 09003KT 10SM BKN095 19/19 A3010 RMK AO2
KFSW 180955Z AUTO 00000KT 10SM BKN095 20/19 A3009 RMK AO2
KFSW 180935Z AUTO 00000KT 10SM SCT095 19/19 A3009 RMK AO2
KFSW 180915Z AUTO 00000KT 10SM OVC095 20/20 A3008 RMK AO2
KFSW 180855Z AUTO 00000KT 10SM OVC095 20/19 A3008 RMK AO2
KFSW 180835Z AUTO 00000KT 10SM BKN095 19/19 A3009 RMK AO2
KFSW 180815Z AUTO 00000KT 10SM SCT095 18/18 A3009 RMK AO2
KFSW 180755Z AUTO 00000KT 10SM CLR 18/18 A3009 RMK AO2
KFSW 180735Z AUTO 00000KT 10SM CLR 18/18 A3008 RMK AO2
KFSW 180715Z AUTO 00000KT 10SM CLR 18/18 A3009 RMK AO2
KFSW 180655Z AUTO 00000KT 10SM CLR 19/18 A3009 RMK AO2
KFSW 180635Z AUTO 00000KT 10SM CLR 18/18 A3008 RMK AO2
KFSW 180615Z AUTO 00000KT 10SM CLR 18/18 A3008 RMK AO2
KFSW 180555Z AUTO 00000KT 10SM CLR 18/18 A3008 RMK AO2
KFSW 180535Z AUTO 00000KT 10SM CLR 18/18 A3009 RMK AO2
KFSW 180515Z AUTO 00000KT 10SM CLR 18/18 A3009 RMK AO2
KFSW 180455Z AUTO 00000KT 10SM CLR 18/18 A3009 RMK AO2
KFSW 180435Z AUTO 00000KT 10SM CLR 19/18 A3008 RMK AO2
KFSW 180415Z AUTO 00000KT 10SM CLR 19/18 A3008 RMK AO2
KFSW 180355Z AUTO 00000KT 10SM CLR 19/19 A3008 RMK AO2
KFSW 180335Z AUTO 00000KT 10SM CLR 19/19 A3008 RMK AO2
KFSW 180315Z AUTO 00000KT 10SM CLR 19/19 A3008 RMK AO2
KFSW 180255Z AUTO 00000KT 10SM CLR 20/19 A3008 RMK AO2
KFSW 180235Z AUTO 00000KT 10SM CLR 20/19 A3007 RMK AO2
KFSW 180215Z AUTO 00000KT 10SM CLR 21/20 A3007 RMK AO2
KFSW 180155Z AUTO 00000KT 10SM CLR 22/20 A3007 RMK AO2
KFSW 180135Z AUTO 00000KT 10SM CLR 22/21 A3007 RMK AO2
KFSW 180115Z AUTO 00000KT 10SM CLR 24/23 A3007 RMK AO2